sensor_id;sensor_type;location;lat;lon;timestamp;temperature;humidity
23251;DHT22;11794;49.730;10.088;2024-03-02T00:00:42;5.50;99.90
23251;DHT22;11794;49.730;10.088;2024-03-02T00:03:08;5.50;99.90
23251;DHT22;11794;49.730;10.088;2024-03-02T00:05:35;5.60;99.90
23251;DHT22;11794;49.730;10.088;2024-03-02T00:08:00;5.60;99.90
23251;DHT22;11794;49.730;10.088;2024-03-02T00:10:37;5.50;99.90
23251;DHT22;11794;49.730;10.088;2024-03-02T00:13:05;5.50;99.90
23251;DHT22;11794;49.730;10.088;2024-03-02T00:15:41;5.50;99.90
23251;DHT22;11794;49.730;10.088;2024-03-02T00:18:12;5.50;99.90
23251;DHT22;11794;49.730;10.088;2024-03-02T00:20:39;5.50;99.90
23251;DHT22;11794;49.730;10.088;2024-03-02T00:23:06;5.50;99.90
23251;DHT22;11794;49.730;10.088;2024-03-02T00:25:52;5.50;99.90
23251;DHT22;11794;49.730;10.088;2024-03-02T00:31:09;5.80;99.90
23251;DHT22;11794;49.730;10.088;2024-03-02T00:33:42;6.00;99.90
23251;DHT22;11794;49.730;10.088;2024-03-02T00:36:10;6.00;99.90
23251;DHT22;11794;49.730;10.088;2024-03-02T00:38:46;6.10;99.90
23251;DHT22;11794;49.730;10.088;2024-03-02T00:41:20;6.20;99.90
23251;DHT22;11794;49.730;10.088;2024-03-02T00:44:09;6.20;99.90
23251;DHT22;11794;49.730;10.088;2024-03-02T00:46:37;6.10;99.90
23251;DHT22;11794;49.730;10.088;2024-03-02T00:49:05;6.10;99.90
23251;DHT22;11794;49.730;10.088;2024-03-02T00:51:34;6.10;99.90
23251;DHT22;11794;49.730;10.088;2024-03-02T00:54:04;5.90;99.90
23251;DHT22;11794;49.730;10.088;2024-03-02T00:56:31;5.90;99.90
23251;DHT22;11794;49.730;10.088;2024-03-02T00:58:56;5.90;99.90
23251;DHT22;11794;49.730;10.088;2024-03-02T01:01:22;5.90;99.90
23251;DHT22;11794;49.730;10.088;2024-03-02T01:03:48;5.90;99.90
23251;DHT22;11794;49.730;10.088;2024-03-02T01:06:14;5.80;99.90
23251;DHT22;11794;49.730;10.088;2024-03-02T01:08:40;5.70;99.90
23251;DHT22;11794;49.730;10.088;2024-03-02T01:11:05;5.60;99.90
23251;DHT22;11794;49.730;10.088;2024-03-02T01:13:31;5.50;99.90
23251;DHT22;11794;49.730;10.088;2024-03-02T01:15:57;5.40;99.90
23251;DHT22;11794;49.730;10.088;2024-03-02T01:18:23;5.40;99.90
23251;DHT22;11794;49.730;10.088;2024-03-02T01:20:49;5.30;99.90
23251;DHT22;11794;49.730;10.088;2024-03-02T01:23:18;5.30;99.90
23251;DHT22;11794;49.730;10.088;2024-03-02T01:25:45;5.30;99.90
23251;DHT22;11794;49.730;10.088;2024-03-02T01:28:10;5.30;99.90
23251;DHT22;11794;49.730;10.088;2024-03-02T01:30:36;5.20;99.90
23251;DHT22;11794;49.730;10.088;2024-03-02T01:33:02;5.20;99.90
23251;DHT22;11794;49.730;10.088;2024-03-02T01:35:27;5.20;99.90
23251;DHT22;11794;49.730;10.088;2024-03-02T01:37:53;5.20;99.90
23251;DHT22;11794;49.730;10.088;2024-03-02T01:40:19;5.20;99.90
23251;DHT22;11794;49.730;10.088;2024-03-02T01:42:44;5.20;99.90
23251;DHT22;11794;49.730;10.088;2024-03-02T01:45:10;5.30;99.90
23251;DHT22;11794;49.730;10.088;2024-03-02T01:47:35;5.40;99.90
23251;DHT22;11794;49.730;10.088;2024-03-02T01:50:01;5.60;99.90
23251;DHT22;11794;49.730;10.088;2024-03-02T01:52:27;5.60;99.90
23251;DHT22;11794;49.730;10.088;2024-03-02T01:54:53;5.70;99.90
23251;DHT22;11794;49.730;10.088;2024-03-02T01:57:19;5.80;99.90
23251;DHT22;11794;49.730;10.088;2024-03-02T01:59:46;5.90;99.90
23251;DHT22;11794;49.730;10.088;2024-03-02T02:02:14;6.00;99.90
23251;DHT22;11794;49.730;10.088;2024-03-02T02:04:39;6.00;99.90
23251;DHT22;11794;49.730;10.088;2024-03-02T02:07:05;5.90;99.90
23251;DHT22;11794;49.730;10.088;2024-03-02T02:09:32;6.00;99.90
23251;DHT22;11794;49.730;10.088;2024-03-02T02:11:57;6.00;99.90
23251;DHT22;11794;49.730;10.088;2024-03-02T02:14:23;6.10;99.90
23251;DHT22;11794;49.730;10.088;2024-03-02T02:16:48;6.00;99.90
23251;DHT22;11794;49.730;10.088;2024-03-02T02:19:14;6.00;99.90
23251;DHT22;11794;49.730;10.088;2024-03-02T02:21:42;6.10;99.90
23251;DHT22;11794;49.730;10.088;2024-03-02T02:24:08;6.10;99.90
23251;DHT22;11794;49.730;10.088;2024-03-02T02:26:33;6.10;99.90
23251;DHT22;11794;49.730;10.088;2024-03-02T02:28:59;6.10;99.90
23251;DHT22;11794;49.730;10.088;2024-03-02T02:31:25;6.00;99.90
23251;DHT22;11794;49.730;10.088;2024-03-02T02:37:12;5.80;99.90
23251;DHT22;11794;49.730;10.088;2024-03-02T02:39:37;5.70;99.90
23251;DHT22;11794;49.730;10.088;2024-03-02T02:42:03;5.60;99.90
23251;DHT22;11794;49.730;10.088;2024-03-02T02:44:29;5.60;99.90
23251;DHT22;11794;49.730;10.088;2024-03-02T02:46:55;5.50;99.90
23251;DHT22;11794;49.730;10.088;2024-03-02T02:49:20;5.60;99.90
23251;DHT22;11794;49.730;10.088;2024-03-02T02:51:46;5.60;99.90
23251;DHT22;11794;49.730;10.088;2024-03-02T02:54:11;5.60;99.90
23251;DHT22;11794;49.730;10.088;2024-03-02T02:56:37;5.60;99.90
23251;DHT22;11794;49.730;10.088;2024-03-02T02:59:02;5.50;99.90
23251;DHT22;11794;49.730;10.088;2024-03-02T03:01:28;5.50;99.90
23251;DHT22;11794;49.730;10.088;2024-03-02T03:03:54;5.50;99.90
23251;DHT22;11794;49.730;10.088;2024-03-02T03:06:19;5.40;99.90
23251;DHT22;11794;49.730;10.088;2024-03-02T03:08:44;5.40;99.90
23251;DHT22;11794;49.730;10.088;2024-03-02T03:11:10;5.40;99.90
23251;DHT22;11794;49.730;10.088;2024-03-02T03:13:35;5.40;99.90
23251;DHT22;11794;49.730;10.088;2024-03-02T03:16:01;5.40;99.90
23251;DHT22;11794;49.730;10.088;2024-03-02T03:18:27;5.40;99.90
23251;DHT22;11794;49.730;10.088;2024-03-02T03:20:52;5.30;99.90
23251;DHT22;11794;49.730;10.088;2024-03-02T03:23:18;5.30;99.90
23251;DHT22;11794;49.730;10.088;2024-03-02T03:25:43;5.20;99.90
23251;DHT22;11794;49.730;10.088;2024-03-02T03:28:09;5.20;99.90
23251;DHT22;11794;49.730;10.088;2024-03-02T03:30:38;5.20;99.90
23251;DHT22;11794;49.730;10.088;2024-03-02T03:33:05;5.10;99.90
23251;DHT22;11794;49.730;10.088;2024-03-02T03:35:34;5.10;99.90
23251;DHT22;11794;49.730;10.088;2024-03-02T03:38:00;5.00;99.90
23251;DHT22;11794;49.730;10.088;2024-03-02T03:40:25;5.00;99.90
23251;DHT22;11794;49.730;10.088;2024-03-02T03:42:51;4.90;99.90
23251;DHT22;11794;49.730;10.088;2024-03-02T03:45:17;4.90;99.90
23251;DHT22;11794;49.730;10.088;2024-03-02T03:47:43;4.90;99.90
23251;DHT22;11794;49.730;10.088;2024-03-02T03:50:09;5.10;99.90
23251;DHT22;11794;49.730;10.088;2024-03-02T03:52:34;5.20;99.90
23251;DHT22;11794;49.730;10.088;2024-03-02T03:55:00;5.20;99.90
23251;DHT22;11794;49.730;10.088;2024-03-02T03:57:26;5.10;99.90
23251;DHT22;11794;49.730;10.088;2024-03-02T03:59:52;5.10;99.90
23251;DHT22;11794;49.730;10.088;2024-03-02T04:02:18;5.10;99.90
23251;DHT22;11794;49.730;10.088;2024-03-02T04:04:43;5.10;99.90
23251;DHT22;11794;49.730;10.088;2024-03-02T04:07:09;5.00;99.90
23251;DHT22;11794;49.730;10.088;2024-03-02T04:09:34;4.90;99.90
23251;DHT22;11794;49.730;10.088;2024-03-02T04:12:00;4.90;99.90
23251;DHT22;11794;49.730;10.088;2024-03-02T04:14:25;4.80;99.90
23251;DHT22;11794;49.730;10.088;2024-03-02T04:16:51;4.70;99.90
23251;DHT22;11794;49.730;10.088;2024-03-02T04:19:16;4.70;99.90
23251;DHT22;11794;49.730;10.088;2024-03-02T04:21:42;4.80;99.90
23251;DHT22;11794;49.730;10.088;2024-03-02T04:24:07;4.70;99.90
23251;DHT22;11794;49.730;10.088;2024-03-02T04:26:33;4.70;99.90
23251;DHT22;11794;49.730;10.088;2024-03-02T04:28:59;4.70;99.90
23251;DHT22;11794;49.730;10.088;2024-03-02T04:31:24;4.70;99.90
23251;DHT22;11794;49.730;10.088;2024-03-02T04:33:50;4.70;99.90
23251;DHT22;11794;49.730;10.088;2024-03-02T04:36:15;4.60;99.90
23251;DHT22;11794;49.730;10.088;2024-03-02T04:38:41;4.60;99.90
23251;DHT22;11794;49.730;10.088;2024-03-02T04:41:06;4.80;99.90
23251;DHT22;11794;49.730;10.088;2024-03-02T04:43:32;5.00;99.90
23251;DHT22;11794;49.730;10.088;2024-03-02T04:45:58;5.00;99.90
23251;DHT22;11794;49.730;10.088;2024-03-02T04:48:24;5.00;99.90
23251;DHT22;11794;49.730;10.088;2024-03-02T04:50:50;4.90;99.90
23251;DHT22;11794;49.730;10.088;2024-03-02T04:53:15;4.90;99.90
23251;DHT22;11794;49.730;10.088;2024-03-02T04:55:41;5.00;99.90
23251;DHT22;11794;49.730;10.088;2024-03-02T04:58:06;4.90;99.90
23251;DHT22;11794;49.730;10.088;2024-03-02T05:00:32;4.70;99.90
23251;DHT22;11794;49.730;10.088;2024-03-02T05:02:58;4.50;99.90
23251;DHT22;11794;49.730;10.088;2024-03-02T05:05:23;4.30;99.90
23251;DHT22;11794;49.730;10.088;2024-03-02T05:07:49;4.10;99.90
23251;DHT22;11794;49.730;10.088;2024-03-02T05:10:14;4.00;99.90
23251;DHT22;11794;49.730;10.088;2024-03-02T05:12:41;3.80;99.90
23251;DHT22;11794;49.730;10.088;2024-03-02T05:15:09;3.70;99.90
23251;DHT22;11794;49.730;10.088;2024-03-02T05:17:38;3.60;99.90
23251;DHT22;11794;49.730;10.088;2024-03-02T05:20:05;3.60;99.90
23251;DHT22;11794;49.730;10.088;2024-03-02T05:22:31;3.50;99.90
23251;DHT22;11794;49.730;10.088;2024-03-02T05:24:57;3.50;99.90
23251;DHT22;11794;49.730;10.088;2024-03-02T05:27:24;3.40;99.90
23251;DHT22;11794;49.730;10.088;2024-03-02T05:29:49;3.40;99.90
23251;DHT22;11794;49.730;10.088;2024-03-02T05:32:15;3.50;99.90
23251;DHT22;11794;49.730;10.088;2024-03-02T05:34:40;3.70;99.90
23251;DHT22;11794;49.730;10.088;2024-03-02T05:37:06;3.60;99.90
23251;DHT22;11794;49.730;10.088;2024-03-02T05:39:32;3.60;99.90
23251;DHT22;11794;49.730;10.088;2024-03-02T05:41:57;3.50;99.90
23251;DHT22;11794;49.730;10.088;2024-03-02T05:44:23;3.40;99.90
23251;DHT22;11794;49.730;10.088;2024-03-02T05:46:48;3.20;99.90
23251;DHT22;11794;49.730;10.088;2024-03-02T05:49:14;3.10;99.90
23251;DHT22;11794;49.730;10.088;2024-03-02T05:51:39;3.10;99.90
23251;DHT22;11794;49.730;10.088;2024-03-02T05:54:05;3.10;99.90
23251;DHT22;11794;49.730;10.088;2024-03-02T05:56:30;3.10;99.90
23251;DHT22;11794;49.730;10.088;2024-03-02T05:58:56;3.00;99.90
23251;DHT22;11794;49.730;10.088;2024-03-02T06:01:50;3.00;99.90
23251;DHT22;11794;49.730;10.088;2024-03-02T06:04:16;3.00;99.90
23251;DHT22;11794;49.730;10.088;2024-03-02T06:06:42;3.00;99.90
23251;DHT22;11794;49.730;10.088;2024-03-02T06:09:10;3.00;99.90
23251;DHT22;11794;49.730;10.088;2024-03-02T06:11:38;3.00;99.90
23251;DHT22;11794;49.730;10.088;2024-03-02T06:14:05;3.10;99.90
23251;DHT22;11794;49.730;10.088;2024-03-02T06:16:31;3.10;99.90
23251;DHT22;11794;49.730;10.088;2024-03-02T06:18:57;3.20;99.90
23251;DHT22;11794;49.730;10.088;2024-03-02T06:21:23;3.30;99.90
23251;DHT22;11794;49.730;10.088;2024-03-02T06:23:49;3.30;99.90
23251;DHT22;11794;49.730;10.088;2024-03-02T06:26:15;3.30;99.90
23251;DHT22;11794;49.730;10.088;2024-03-02T06:28:40;3.30;99.90
23251;DHT22;11794;49.730;10.088;2024-03-02T06:31:06;3.40;99.90
23251;DHT22;11794;49.730;10.088;2024-03-02T06:33:31;3.50;99.90
23251;DHT22;11794;49.730;10.088;2024-03-02T06:35:57;3.60;99.90
23251;DHT22;11794;49.730;10.088;2024-03-02T06:38:22;3.60;99.90
23251;DHT22;11794;49.730;10.088;2024-03-02T06:40:48;3.70;99.90
23251;DHT22;11794;49.730;10.088;2024-03-02T06:43:13;3.80;99.90
23251;DHT22;11794;49.730;10.088;2024-03-02T06:45:39;3.90;99.90
23251;DHT22;11794;49.730;10.088;2024-03-02T06:48:04;4.00;99.90
23251;DHT22;11794;49.730;10.088;2024-03-02T06:50:30;4.00;99.90
23251;DHT22;11794;49.730;10.088;2024-03-02T06:52:56;4.10;99.90
23251;DHT22;11794;49.730;10.088;2024-03-02T06:55:22;4.20;99.90
23251;DHT22;11794;49.730;10.088;2024-03-02T06:57:47;4.40;99.90
23251;DHT22;11794;49.730;10.088;2024-03-02T07:00:13;4.60;99.90
23251;DHT22;11794;49.730;10.088;2024-03-02T07:02:39;4.80;99.90
23251;DHT22;11794;49.730;10.088;2024-03-02T07:05:07;5.10;99.90
23251;DHT22;11794;49.730;10.088;2024-03-02T07:07:33;5.30;99.90
23251;DHT22;11794;49.730;10.088;2024-03-02T07:10:00;5.60;99.90
23251;DHT22;11794;49.730;10.088;2024-03-02T07:12:25;5.70;99.90
23251;DHT22;11794;49.730;10.088;2024-03-02T07:14:51;5.80;99.90
23251;DHT22;11794;49.730;10.088;2024-03-02T07:17:29;5.80;99.90
23251;DHT22;11794;49.730;10.088;2024-03-02T07:19:55;5.80;99.90
23251;DHT22;11794;49.730;10.088;2024-03-02T07:22:20;5.90;99.90
23251;DHT22;11794;49.730;10.088;2024-03-02T07:24:46;6.20;99.90
23251;DHT22;11794;49.730;10.088;2024-03-02T07:27:12;6.50;99.90
23251;DHT22;11794;49.730;10.088;2024-03-02T07:29:39;6.70;99.90
23251;DHT22;11794;49.730;10.088;2024-03-02T07:32:06;6.90;99.90
23251;DHT22;11794;49.730;10.088;2024-03-02T07:34:31;7.10;99.90
23251;DHT22;11794;49.730;10.088;2024-03-02T07:36:57;7.20;99.90
23251;DHT22;11794;49.730;10.088;2024-03-02T07:39:23;7.20;99.90
23251;DHT22;11794;49.730;10.088;2024-03-02T07:41:49;7.40;99.90
23251;DHT22;11794;49.730;10.088;2024-03-02T07:44:15;7.50;99.90
23251;DHT22;11794;49.730;10.088;2024-03-02T07:46:42;7.80;99.90
23251;DHT22;11794;49.730;10.088;2024-03-02T07:49:08;7.80;99.90
23251;DHT22;11794;49.730;10.088;2024-03-02T07:51:33;7.80;99.90
23251;DHT22;11794;49.730;10.088;2024-03-02T07:53:59;7.70;99.90
23251;DHT22;11794;49.730;10.088;2024-03-02T07:56:24;7.40;99.90
23251;DHT22;11794;49.730;10.088;2024-03-02T07:58:50;7.40;99.90
23251;DHT22;11794;49.730;10.088;2024-03-02T08:01:16;7.50;99.90
23251;DHT22;11794;49.730;10.088;2024-03-02T08:03:42;7.60;99.90
23251;DHT22;11794;49.730;10.088;2024-03-02T08:06:08;7.80;99.90
23251;DHT22;11794;49.730;10.088;2024-03-02T08:08:33;7.90;99.90
23251;DHT22;11794;49.730;10.088;2024-03-02T08:10:59;8.10;99.90
23251;DHT22;11794;49.730;10.088;2024-03-02T08:13:24;8.30;99.90
23251;DHT22;11794;49.730;10.088;2024-03-02T08:15:50;8.50;99.90
23251;DHT22;11794;49.730;10.088;2024-03-02T08:18:16;8.90;99.90
23251;DHT22;11794;49.730;10.088;2024-03-02T08:20:41;8.80;99.90
23251;DHT22;11794;49.730;10.088;2024-03-02T08:23:07;8.90;99.90
23251;DHT22;11794;49.730;10.088;2024-03-02T08:25:33;8.90;99.90
23251;DHT22;11794;49.730;10.088;2024-03-02T08:27:59;8.90;99.90
23251;DHT22;11794;49.730;10.088;2024-03-02T08:30:24;8.90;99.90
23251;DHT22;11794;49.730;10.088;2024-03-02T08:32:50;8.90;99.90
23251;DHT22;11794;49.730;10.088;2024-03-02T08:35:15;9.00;99.90
23251;DHT22;11794;49.730;10.088;2024-03-02T08:37:42;9.60;99.90
23251;DHT22;11794;49.730;10.088;2024-03-02T08:40:09;9.70;99.90
23251;DHT22;11794;49.730;10.088;2024-03-02T08:42:34;9.60;99.90
23251;DHT22;11794;49.730;10.088;2024-03-02T08:45:00;9.40;99.90
23251;DHT22;11794;49.730;10.088;2024-03-02T08:47:28;9.50;99.90
23251;DHT22;11794;49.730;10.088;2024-03-02T08:49:54;9.70;99.90
23251;DHT22;11794;49.730;10.088;2024-03-02T08:52:20;9.70;99.90
23251;DHT22;11794;49.730;10.088;2024-03-02T08:54:45;9.80;99.90
23251;DHT22;11794;49.730;10.088;2024-03-02T08:57:11;9.50;99.90
23251;DHT22;11794;49.730;10.088;2024-03-02T08:59:36;9.50;99.90
23251;DHT22;11794;49.730;10.088;2024-03-02T09:02:02;9.60;99.90
23251;DHT22;11794;49.730;10.088;2024-03-02T09:04:28;10.00;99.90
23251;DHT22;11794;49.730;10.088;2024-03-02T09:06:54;10.30;99.90
23251;DHT22;11794;49.730;10.088;2024-03-02T09:09:19;10.70;99.90
23251;DHT22;11794;49.730;10.088;2024-03-02T09:11:46;10.50;99.90
23251;DHT22;11794;49.730;10.088;2024-03-02T09:14:12;10.40;99.90
23251;DHT22;11794;49.730;10.088;2024-03-02T09:16:37;10.30;99.90
23251;DHT22;11794;49.730;10.088;2024-03-02T09:19:03;10.20;99.90
23251;DHT22;11794;49.730;10.088;2024-03-02T09:21:29;10.30;99.90
23251;DHT22;11794;49.730;10.088;2024-03-02T09:23:55;10.70;99.90
23251;DHT22;11794;49.730;10.088;2024-03-02T09:26:21;10.90;99.90
23251;DHT22;11794;49.730;10.088;2024-03-02T09:28:46;10.80;99.90
23251;DHT22;11794;49.730;10.088;2024-03-02T09:31:12;11.10;99.90
23251;DHT22;11794;49.730;10.088;2024-03-02T09:33:37;11.40;99.90
23251;DHT22;11794;49.730;10.088;2024-03-02T09:36:04;11.70;99.90
23251;DHT22;11794;49.730;10.088;2024-03-02T09:38:32;11.90;99.90
23251;DHT22;11794;49.730;10.088;2024-03-02T09:41:00;11.90;99.90
23251;DHT22;11794;49.730;10.088;2024-03-02T09:43:26;11.80;99.90
23251;DHT22;11794;49.730;10.088;2024-03-02T09:45:52;12.30;99.90
23251;DHT22;11794;49.730;10.088;2024-03-02T09:48:18;12.60;99.90
23251;DHT22;11794;49.730;10.088;2024-03-02T09:50:46;12.90;99.90
23251;DHT22;11794;49.730;10.088;2024-03-02T09:53:12;12.60;99.90
23251;DHT22;11794;49.730;10.088;2024-03-02T09:55:37;12.00;99.90
23251;DHT22;11794;49.730;10.088;2024-03-02T09:58:04;11.90;99.90
23251;DHT22;11794;49.730;10.088;2024-03-02T10:00:29;12.00;99.90
23251;DHT22;11794;49.730;10.088;2024-03-02T10:02:55;11.90;99.90
23251;DHT22;11794;49.730;10.088;2024-03-02T10:05:24;12.00;99.90
23251;DHT22;11794;49.730;10.088;2024-03-02T10:08:08;12.20;99.90
23251;DHT22;11794;49.730;10.088;2024-03-02T10:10:39;12.50;99.90
23251;DHT22;11794;49.730;10.088;2024-03-02T10:13:12;12.40;99.90
23251;DHT22;11794;49.730;10.088;2024-03-02T10:15:39;12.60;99.90
23251;DHT22;11794;49.730;10.088;2024-03-02T10:18:11;12.80;99.90
23251;DHT22;11794;49.730;10.088;2024-03-02T10:20:38;13.10;99.90
23251;DHT22;11794;49.730;10.088;2024-03-02T10:23:14;13.10;99.90
23251;DHT22;11794;49.730;10.088;2024-03-02T10:25:40;13.40;99.90
23251;DHT22;11794;49.730;10.088;2024-03-02T10:28:06;13.80;99.90
23251;DHT22;11794;49.730;10.088;2024-03-02T10:30:35;14.40;99.90
23251;DHT22;11794;49.730;10.088;2024-03-02T10:33:02;14.20;99.90
23251;DHT22;11794;49.730;10.088;2024-03-02T10:35:27;14.00;99.90
23251;DHT22;11794;49.730;10.088;2024-03-02T10:37:53;14.80;99.90
23251;DHT22;11794;49.730;10.088;2024-03-02T10:40:22;15.20;99.90
23251;DHT22;11794;49.730;10.088;2024-03-02T10:42:50;15.40;99.90
23251;DHT22;11794;49.730;10.088;2024-03-02T10:45:17;15.90;99.90
23251;DHT22;11794;49.730;10.088;2024-03-02T10:47:44;16.70;99.90
23251;DHT22;11794;49.730;10.088;2024-03-02T10:50:11;17.40;99.90
23251;DHT22;11794;49.730;10.088;2024-03-02T10:52:37;17.90;99.90
23251;DHT22;11794;49.730;10.088;2024-03-02T10:55:05;18.40;99.90
23251;DHT22;11794;49.730;10.088;2024-03-02T10:57:45;18.10;99.90
23251;DHT22;11794;49.730;10.088;2024-03-02T11:00:15;18.00;99.90
23251;DHT22;11794;49.730;10.088;2024-03-02T11:03:10;17.20;99.90
23251;DHT22;11794;49.730;10.088;2024-03-02T11:05:40;16.50;99.90
23251;DHT22;11794;49.730;10.088;2024-03-02T11:08:08;16.20;99.90
23251;DHT22;11794;49.730;10.088;2024-03-02T11:10:36;16.10;99.90
23251;DHT22;11794;49.730;10.088;2024-03-02T11:13:05;16.00;99.90
23251;DHT22;11794;49.730;10.088;2024-03-02T11:15:34;16.20;99.90
23251;DHT22;11794;49.730;10.088;2024-03-02T11:18:04;16.40;99.90
23251;DHT22;11794;49.730;10.088;2024-03-02T11:20:36;17.00;99.90
23251;DHT22;11794;49.730;10.088;2024-03-02T11:23:06;17.60;99.90
23251;DHT22;11794;49.730;10.088;2024-03-02T11:25:32;18.30;99.90
23251;DHT22;11794;49.730;10.088;2024-03-02T11:28:05;18.60;99.90
23251;DHT22;11794;49.730;10.088;2024-03-02T11:33:00;19.30;99.90
23251;DHT22;11794;49.730;10.088;2024-03-02T11:35:29;19.00;99.90
23251;DHT22;11794;49.730;10.088;2024-03-02T11:37:54;19.20;99.90
23251;DHT22;11794;49.730;10.088;2024-03-02T11:40:22;18.50;99.90
23251;DHT22;11794;49.730;10.088;2024-03-02T11:42:47;18.30;99.90
23251;DHT22;11794;49.730;10.088;2024-03-02T11:45:17;18.90;99.90
23251;DHT22;11794;49.730;10.088;2024-03-02T11:47:50;19.80;99.90
23251;DHT22;11794;49.730;10.088;2024-03-02T11:50:35;20.00;99.90
23251;DHT22;11794;49.730;10.088;2024-03-02T11:53:07;19.80;99.90
23251;DHT22;11794;49.730;10.088;2024-03-02T11:55:37;19.10;99.90
23251;DHT22;11794;49.730;10.088;2024-03-02T11:58:03;19.20;99.90
23251;DHT22;11794;49.730;10.088;2024-03-02T12:00:29;20.10;99.90
23251;DHT22;11794;49.730;10.088;2024-03-02T12:03:08;21.30;99.90
23251;DHT22;11794;49.730;10.088;2024-03-02T12:05:35;22.30;98.70
23251;DHT22;11794;49.730;10.088;2024-03-02T12:08:03;22.60;97.00
23251;DHT22;11794;49.730;10.088;2024-03-02T12:10:29;22.10;97.10
23251;DHT22;11794;49.730;10.088;2024-03-02T12:12:57;22.50;97.10
23251;DHT22;11794;49.730;10.088;2024-03-02T12:15:26;22.30;95.20
23251;DHT22;11794;49.730;10.088;2024-03-02T12:17:56;21.50;96.30
23251;DHT22;11794;49.730;10.088;2024-03-02T12:20:23;21.30;95.50
23251;DHT22;11794;49.730;10.088;2024-03-02T12:22:51;22.00;96.30
23251;DHT22;11794;49.730;10.088;2024-03-02T12:25:19;23.10;95.20
23251;DHT22;11794;49.730;10.088;2024-03-02T12:27:45;24.10;93.60
23251;DHT22;11794;49.730;10.088;2024-03-02T12:30:12;23.00;93.10
23251;DHT22;11794;49.730;10.088;2024-03-02T12:32:40;23.30;93.10
23251;DHT22;11794;49.730;10.088;2024-03-02T12:35:05;23.90;92.90
23251;DHT22;11794;49.730;10.088;2024-03-02T12:37:31;25.00;92.10
23251;DHT22;11794;49.730;10.088;2024-03-02T12:39:57;24.70;90.00
23251;DHT22;11794;49.730;10.088;2024-03-02T12:42:24;22.80;90.10
23251;DHT22;11794;49.730;10.088;2024-03-02T12:44:51;23.80;90.90
23251;DHT22;11794;49.730;10.088;2024-03-02T12:47:19;24.50;89.30
23251;DHT22;11794;49.730;10.088;2024-03-02T12:49:45;25.50;88.70
23251;DHT22;11794;49.730;10.088;2024-03-02T12:52:13;26.10;86.80
23251;DHT22;11794;49.730;10.088;2024-03-02T12:54:38;27.00;88.00
23251;DHT22;11794;49.730;10.088;2024-03-02T12:57:04;27.70;84.70
23251;DHT22;11794;49.730;10.088;2024-03-02T12:59:30;27.80;84.20
23251;DHT22;11794;49.730;10.088;2024-03-02T13:01:56;26.90;80.70
23251;DHT22;11794;49.730;10.088;2024-03-02T13:04:28;25.60;82.10
23251;DHT22;11794;49.730;10.088;2024-03-02T13:06:54;25.50;83.30
23251;DHT22;11794;49.730;10.088;2024-03-02T13:09:21;24.70;81.30
23251;DHT22;11794;49.730;10.088;2024-03-02T13:11:47;25.50;79.60
23251;DHT22;11794;49.730;10.088;2024-03-02T13:14:13;26.40;78.70
23251;DHT22;11794;49.730;10.088;2024-03-02T13:16:42;26.80;76.20
23251;DHT22;11794;49.730;10.088;2024-03-02T13:19:08;24.70;83.50
23251;DHT22;11794;49.730;10.088;2024-03-02T13:21:34;25.30;82.20
23251;DHT22;11794;49.730;10.088;2024-03-02T13:24:00;26.30;80.20
23251;DHT22;11794;49.730;10.088;2024-03-02T13:26:26;25.70;80.90
23251;DHT22;11794;49.730;10.088;2024-03-02T13:28:51;25.90;79.90
23251;DHT22;11794;49.730;10.088;2024-03-02T13:31:17;26.70;80.60
23251;DHT22;11794;49.730;10.088;2024-03-02T13:33:42;25.50;81.60
23251;DHT22;11794;49.730;10.088;2024-03-02T13:36:08;24.10;83.80
23251;DHT22;11794;49.730;10.088;2024-03-02T13:38:33;24.00;85.60
23251;DHT22;11794;49.730;10.088;2024-03-02T13:40:59;23.60;85.60
23251;DHT22;11794;49.730;10.088;2024-03-02T13:43:26;24.60;86.10
23251;DHT22;11794;49.730;10.088;2024-03-02T13:45:52;23.90;79.00
23251;DHT22;11794;49.730;10.088;2024-03-02T13:48:19;25.00;79.60
23251;DHT22;11794;49.730;10.088;2024-03-02T13:50:45;24.20;77.20
23251;DHT22;11794;49.730;10.088;2024-03-02T13:53:11;23.40;81.10
23251;DHT22;11794;49.730;10.088;2024-03-02T13:55:37;22.90;79.80
23251;DHT22;11794;49.730;10.088;2024-03-02T13:58:03;24.30;78.50
23251;DHT22;11794;49.730;10.088;2024-03-02T14:00:29;24.30;79.90
23251;DHT22;11794;49.730;10.088;2024-03-02T14:02:55;25.00;80.20
23251;DHT22;11794;49.730;10.088;2024-03-02T14:05:20;24.30;79.60
23251;DHT22;11794;49.730;10.088;2024-03-02T14:07:46;23.30;82.80
23251;DHT22;11794;49.730;10.088;2024-03-02T14:10:12;24.30;79.00
23251;DHT22;11794;49.730;10.088;2024-03-02T14:12:37;23.00;81.30
23251;DHT22;11794;49.730;10.088;2024-03-02T14:15:03;22.80;82.00
23251;DHT22;11794;49.730;10.088;2024-03-02T14:17:29;23.20;83.00
23251;DHT22;11794;49.730;10.088;2024-03-02T14:19:57;22.80;85.30
23251;DHT22;11794;49.730;10.088;2024-03-02T14:22:24;23.80;83.60
23251;DHT22;11794;49.730;10.088;2024-03-02T14:24:50;23.80;83.90
23251;DHT22;11794;49.730;10.088;2024-03-02T14:27:15;23.40;85.50
23251;DHT22;11794;49.730;10.088;2024-03-02T14:29:43;24.00;83.20
23251;DHT22;11794;49.730;10.088;2024-03-02T14:32:08;21.60;89.70
23251;DHT22;11794;49.730;10.088;2024-03-02T14:34:34;21.00;91.10
23251;DHT22;11794;49.730;10.088;2024-03-02T14:37:00;20.30;91.80
23251;DHT22;11794;49.730;10.088;2024-03-02T14:39:28;19.90;92.50
23251;DHT22;11794;49.730;10.088;2024-03-02T14:41:55;20.90;92.10
23251;DHT22;11794;49.730;10.088;2024-03-02T14:44:21;20.90;91.30
23251;DHT22;11794;49.730;10.088;2024-03-02T14:46:48;19.40;92.40
23251;DHT22;11794;49.730;10.088;2024-03-02T14:49:14;19.60;93.20
23251;DHT22;11794;49.730;10.088;2024-03-02T14:51:40;19.90;92.70
23251;DHT22;11794;49.730;10.088;2024-03-02T14:54:06;19.80;92.70
23251;DHT22;11794;49.730;10.088;2024-03-02T14:56:31;19.50;92.80
23251;DHT22;11794;49.730;10.088;2024-03-02T14:58:57;19.00;93.50
23251;DHT22;11794;49.730;10.088;2024-03-02T15:01:22;18.30;94.80
23251;DHT22;11794;49.730;10.088;2024-03-02T15:03:50;18.40;94.70
23251;DHT22;11794;49.730;10.088;2024-03-02T15:06:15;18.80;95.00
23251;DHT22;11794;49.730;10.088;2024-03-02T15:08:41;19.10;95.00
23251;DHT22;11794;49.730;10.088;2024-03-02T15:11:08;19.90;93.90
23251;DHT22;11794;49.730;10.088;2024-03-02T15:13:33;19.90;93.40
23251;DHT22;11794;49.730;10.088;2024-03-02T15:15:59;19.60;93.90
23251;DHT22;11794;49.730;10.088;2024-03-02T15:18:25;19.50;94.40
23251;DHT22;11794;49.730;10.088;2024-03-02T15:20:50;19.40;94.30
23251;DHT22;11794;49.730;10.088;2024-03-02T15:23:16;19.20;94.30
23251;DHT22;11794;49.730;10.088;2024-03-02T15:25:41;19.00;95.10
23251;DHT22;11794;49.730;10.088;2024-03-02T15:28:07;19.60;94.90
23251;DHT22;11794;49.730;10.088;2024-03-02T15:30:32;19.30;94.90